Toa Baja, Puerto Rico

6:49 AM AST on July 27, 2016 (GMT -0400)
KP4MP DAVIS | | Change Station

Elev 17 ft 18.44 °N, 66.18 °W | Updated 8 seconds ago

Mostly Cloudy
Mostly Cloudy
80.2 °F
Feels Like 86 °F
N
0.0
Wind Variable Wind from ESE
Gusts 0.0 mph

Today
High -- | Low -- °F
--% Chance of Precip.
Yesterday
High -- | Low -- °F
Precip. -- in
Pressure 30.03 in
Visibility 8.0 miles
Clouds Scattered Clouds 2000 ft
Mostly Cloudy 2500 ft
Mostly Cloudy 2900 ft
Heat Index 86 °F
Dew Point 76 °F
Humidity 86%
Rainfall 0.00 in
Snow Depth Not available.
6:00 AM 7:01 PM
Last Quarter, 44% visible
SPECI TJNR 271035Z AUTO 09006KT 8SM SCT020 BKN025 BKN029 28/25 A3003 RMK AO2 T02780250
Pressure 30.03 in
Visibility 8.0 miles
Clouds Scattered Clouds 2000 ft
Mostly Cloudy 2500 ft
Mostly Cloudy 2900 ft
Heat Index 86 °F
Dew Point 76 °F
Humidity 86%
Rainfall 0.00 in
Snow Depth Not available.
6:00 AM 7:01 PM
Last Quarter, 44% visible
SPECI TJNR 271035Z AUTO 09006KT 8SM SCT020 BKN025 BKN029 28/25 A3003 RMK AO2 T02780250

10-Day Weather Forecast

Almanac

Astronomy

Jul. 27, 2016 Rise Set
Actual Time
Civil Twilight
Nautical Twilight
Astronomical Twilight
Moon
Length of Visible Light
Length of Day
Tomorrow will be .
, % of the Moon is Illuminated

Today's Extremes

Country Highs Country Lows

Community

WunderPhotos

Upload Photos

1,927,825 photos uploaded!

WunderBlog® & News

Nearby

Air Quality

  Air Quality AQ Index Pollutant
Not available.

Snow Depth

Station Depth Elevation

Earthquake Activity

City Distance Mag. Time & Date
Minimum magnitude displayed is 2.5.

Coastal Water Temperatures

Place Temperature

Stations

Nearby Weather Stations

Station Location Temp. Windchill Dew Point Humidity Wind Precip. Elev Updated Type